Time;durP1;ratioP1;P1;durP2;ratioP2;P2;SDS_P1;SDS_P2;PMS_P1;PMS_P2;Temp;Humidity;BMP_temperature;BMP_pressure;BME280_temperature;BME280_humidity;BME280_pressure;Samples;Min_cycle;Max_cycle;Signal;HPM_P1;HPM_P2
2024/04/16 00:00:03;;;;;;;10.18;3.97;;;;;;;;;;2196881;26;20012;-72
2024/04/16 00:01:04;;;;;;;11.52;5.10;;;;;;;;;;2197731;26;20009;-72
2024/04/16 00:02:05;;;;;;;;;;;;;;;;;;2199619;26;20009;-71
2024/04/16 00:03:10;;;;;;;8.90;3.95;;;;;;;;;;2199518;26;20026;-72
2024/04/16 00:04:11;;;;;;;10.15;4.20;;;;;;;;;;2197374;26;19998;-71
2024/04/16 00:05:11;;;;;;;;;;;;;;;;;;2186396;26;20117;-72
2024/04/16 00:06:15;;;;;;;10.57;3.53;;;;;;;;;;2187274;26;20032;-72
2024/04/16 00:07:16;;;;;;;10.73;4.22;;;;;;;;;;2187124;26;20330;-71
2024/04/16 00:08:17;;;;;;;;;;;;;;;;;;2190913;26;20006;-72
2024/04/16 00:09:18;;;;;;;9.00;4.07;;;;;;;;;;2184454;26;19926;-71
2024/04/16 00:10:22;;;;;;;11.30;4.68;;;;;;;;;;2184339;26;20025;-71
2024/04/16 00:11:23;;;;;;;5.65;3.60;;;;;;;;;;2186298;26;20238;-71
2024/04/16 00:12:27;;;;;;;8.85;3.78;;;;;;;;;;2186281;26;20687;-72
2024/04/16 00:13:28;;;;;;;12.65;4.30;;;;;;;;;;2186394;26;20005;-73
2024/04/16 00:14:31;;;;;;;;;;;;;;;;;;2184218;26;20002;-72
2024/04/16 00:15:32;;;;;;;9.30;4.22;;;;;;;;;;2187276;26;20034;-78
2024/04/16 00:16:33;;;;;;;;;;;;;;;;;;2188377;26;19997;-74
2024/04/16 00:17:34;;;;;;;8.45;4.07;;;;;;;;;;2188266;26;20048;-72
2024/04/16 00:18:38;;;;;;;12.32;3.72;;;;;;;;;;2186666;26;20017;-72
2024/04/16 00:19:39;;;;;;;7.95;3.30;;;;;;;;;;2185003;26;20351;-72
2024/04/16 00:20:40;;;;;;;11.70;3.72;;;;;;;;;;2184847;26;20080;-76
2024/04/16 00:21:43;;;;;;;;;;;;;;;;;;2185067;26;20010;-70
2024/04/16 00:22:44;;;;;;;11.50;4.15;;;;;;;;;;2186059;26;20275;-72
2024/04/16 00:23:46;;;;;;;7.18;3.92;;;;;;;;;;2187788;26;20077;-71
2024/04/16 00:24:50;;;;;;;8.30;4.05;;;;;;;;;;2184858;26;20133;-72
2024/04/16 00:25:51;;;;;;;8.70;3.90;;;;;;;;;;2198915;26;20002;-71
2024/04/16 00:26:52;;;;;;;;;;;;;;;;;;2204343;26;20019;-72
2024/04/16 00:27:55;;;;;;;12.48;4.00;;;;;;;;;;2197376;26;20630;-72
2024/04/16 00:28:59;;;;;;;8.63;4.00;;;;;;;;;;2199258;26;20008;-73
2024/04/16 00:30:00;;;;;;;11.48;3.80;;;;;;;;;;2196839;26;20087;-72
2024/04/16 00:31:01;;;;;;;9.85;3.78;;;;;;;;;;2199874;26;20025;-72
2024/04/16 00:32:03;;;;;;;10.32;3.90;;;;;;;;;;2198182;26;20024;-71
2024/04/16 00:33:07;;;;;;;11.65;4.43;;;;;;;;;;2195646;26;20013;-71
2024/04/16 00:34:08;;;;;;;6.03;3.35;;;;;;;;;;2199220;26;20013;-72
2024/04/16 00:35:09;;;;;;;9.43;4.20;;;;;;;;;;2203396;26;21053;-71
2024/04/16 00:36:10;;;;;;;9.20;3.88;;;;;;;;;;2197266;26;20016;-71
2024/04/16 00:37:14;;;;;;;10.75;4.00;;;;;;;;;;2203054;26;20087;-72
2024/04/16 00:38:15;;;;;;;8.82;3.88;;;;;;;;;;2199323;26;20012;-74
2024/04/16 00:39:16;;;;;;;;;;;;;;;;;;2200026;26;20536;-72
2024/04/16 00:40:18;;;;;;;8.15;3.97;;;;;;;;;;2199087;26;20281;-72
2024/04/16 00:41:22;;;;;;;10.20;3.80;;;;;;;;;;2202482;26;20024;-72
2024/04/16 00:42:23;;;;;;;8.32;4.18;;;;;;;;;;2200357;26;20006;-72
2024/04/16 00:43:27;;;;;;;8.73;4.20;;;;;;;;;;2196371;26;20025;-72
2024/04/16 00:44:28;;;;;;;9.40;4.00;;;;;;;;;;2199620;26;20005;-72
2024/04/16 00:45:32;;;;;;;15.77;4.40;;;;;;;;;;2200595;26;20464;-71
2024/04/16 00:46:33;;;;;;;7.32;4.38;;;;;;;;;;2197053;26;20034;-72
2024/04/16 00:47:35;;;;;;;7.97;4.63;;;;;;;;;;2198233;26;20024;-76
2024/04/16 00:48:38;;;;;;;13.60;4.13;;;;;;;;;;2201684;26;20001;-72
2024/04/16 00:49:39;;;;;;;9.55;4.18;;;;;;;;;;2198249;26;20012;-72
2024/04/16 00:50:40;;;;;;;;;;;;;;;;;;2197889;26;20496;-72
2024/04/16 00:51:41;;;;;;;9.27;4.28;;;;;;;;;;2200301;26;19962;-71
2024/04/16 00:52:45;;;;;;;10.88;3.97;;;;;;;;;;2199476;26;20018;-72
2024/04/16 00:53:47;;;;;;;11.13;4.18;;;;;;;;;;2201543;26;20016;-72
2024/04/16 00:54:48;;;;;;;10.38;4.43;;;;;;;;;;2199682;26;20001;-72
2024/04/16 00:55:50;;;;;;;9.20;4.32;;;;;;;;;;2197441;26;20009;-71
2024/04/16 00:56:55;;;;;;;7.88;4.22;;;;;;;;;;2199036;26;20088;-72
2024/04/16 00:57:57;;;;;;;10.43;4.13;;;;;;;;;;2200980;26;20097;-73
2024/04/16 00:59:00;;;;;;;13.07;4.43;;;;;;;;;;2196640;26;20005;-72
2024/04/16 01:00:01;;;;;;;14.05;4.85;;;;;;;;;;2202266;26;20020;-73
2024/04/16 01:01:05;;;;;;;8.45;4.00;;;;;;;;;;2200621;26;20430;-71
2024/04/16 01:02:06;;;;;;;8.15;3.90;;;;;;;;;;2200164;26;20041;-71
2024/04/16 01:03:07;;;;;;;;;;;;;;;;;;2199942;26;20002;-71
2024/04/16 01:04:08;;;;;;;15.63;4.47;;;;;;;;;;2198393;26;19926;-74
2024/04/16 01:05:12;;;;;;;8.88;4.03;;;;;;;;;;2201465;26;20001;-71
2024/04/16 01:06:13;;;;;;;12.75;4.35;;;;;;;;;;2200675;26;20038;-72
2024/04/16 01:07:16;;;;;;;7.78;4.55;;;;;;;;;;2198681;26;20056;-72
2024/04/16 01:08:17;;;;;;;8.75;4.38;;;;;;;;;;2202041;26;20077;-73
2024/04/16 01:09:19;;;;;;;11.38;4.18;;;;;;;;;;2200577;26;20698;-72
2024/04/16 01:10:23;;;;;;;10.88;4.13;;;;;;;;;;2199503;26;20712;-73
2024/04/16 01:11:24;;;;;;;11.50;4.40;;;;;;;;;;2201597;26;20021;-72
2024/04/16 01:12:25;;;;;;;8.68;4.05;;;;;;;;;;2198552;26;20025;-72
2024/04/16 01:13:26;;;;;;;17.35;4.25;;;;;;;;;;2200728;26;20339;-72
2024/04/16 01:14:32;;;;;;;8.77;4.18;;;;;;;;;;2201120;26;20008;-72
2024/04/16 01:15:34;;;;;;;8.00;4.22;;;;;;;;;;2200315;26;20001;-72
2024/04/16 01:16:35;;;;;;;12.20;4.38;;;;;;;;;;2199579;26;20005;-72
2024/04/16 01:17:36;;;;;;;8.25;5.13;;;;;;;;;;2199694;26;20531;-73
2024/04/16 01:18:39;;;;;;;;;;;;;;;;;;2201157;26;20032;-73
2024/04/16 01:19:40;;;;;;;10.30;4.28;;;;;;;;;;2201664;26;19970;-72
2024/04/16 01:20:41;;;;;;;12.00;4.60;;;;;;;;;;2199859;26;20010;-72
2024/04/16 01:21:42;;;;;;;;;;;;;;;;;;2201148;26;20008;-72
2024/04/16 01:22:53;;;;;;;10.90;4.53;;;;;;;;;;2198565;26;19953;-72
2024/04/16 01:23:55;;;;;;;13.90;4.30;;;;;;;;;;2201927;26;20015;-74
2024/04/16 01:24:55;;;;;;;;;;;;;;;;;;2202371;26;20365;-72
2024/04/16 01:25:56;;;;;;;14.70;4.15;;;;;;;;;;2201501;26;19932;-73
2024/04/16 01:27:00;;;;;;;10.57;3.88;;;;;;;;;;2198053;26;20550;-71
2024/04/16 01:28:01;;;;;;;7.88;4.35;;;;;;;;;;2200680;26;20318;-72
2024/04/16 01:29:02;;;;;;;8.20;4.30;;;;;;;;;;2189158;27;20012;-74
2024/04/16 01:30:04;;;;;;;9.48;4.22;;;;;;;;;;2191912;27;20113;-72
2024/04/16 01:31:09;;;;;;;13.88;4.80;;;;;;;;;;2186097;26;20108;-72
2024/04/16 01:32:10;;;;;;;8.80;4.22;;;;;;;;;;2188232;26;20054;-73
2024/04/16 01:33:10;;;;;;;;;;;;;;;;;;2188291;26;20010;-73
2024/04/16 01:34:14;;;;;;;13.35;5.32;;;;;;;;;;2186660;26;20016;-72
2024/04/16 01:35:15;;;;;;;16.70;5.20;;;;;;;;;;2184638;27;20002;-72
2024/04/16 01:36:16;;;;;;;;;;;;;;;;;;2186922;26;20009;-71
2024/04/16 01:37:20;;;;;;;9.55;4.38;;;;;;;;;;2185166;26;19943;-72
2024/04/16 01:38:23;;;;;;;9.98;4.55;;;;;;;;;;2186296;26;20009;-73
2024/04/16 01:39:25;;;;;;;11.07;4.60;;;;;;;;;;2185959;26;20010;-72
2024/04/16 01:40:28;;;;;;;7.80;4.60;;;;;;;;;;2183365;26;20411;-71
2024/04/16 01:41:29;;;;;;;10.85;4.70;;;;;;;;;;2185486;26;20013;-73
2024/04/16 01:42:30;;;;;;;;;;;;;;;;;;2183276;26;20010;-73
2024/04/16 01:43:31;;;;;;;12.25;4.47;;;;;;;;;;2192226;26;19954;-71
2024/04/16 01:44:35;;;;;;;15.15;5.15;;;;;;;;;;2199493;26;20010;-72
2024/04/16 01:45:36;;;;;;;9.23;4.22;;;;;;;;;;2200000;26;20004;-72
2024/04/16 01:46:37;;;;;;;;;;;;;;;;;;2198390;26;20645;-71
2024/04/16 01:47:38;;;;;;;8.88;4.43;;;;;;;;;;2197795;26;19938;-72
2024/04/16 01:48:42;;;;;;;12.15;4.78;;;;;;;;;;2199868;26;20043;-72
2024/04/16 01:49:43;;;;;;;13.38;4.70;;;;;;;;;;2201627;26;20007;-72
2024/04/16 01:50:44;;;;;;;13.10;5.25;;;;;;;;;;2202480;26;20017;-72
2024/04/16 01:51:44;;;;;;;;;;;;;;;;;;2200100;26;20001;-73
2024/04/16 01:52:48;;;;;;;9.45;4.93;;;;;;;;;;2199374;26;20795;-73
2024/04/16 01:53:52;;;;;;;7.80;4.22;;;;;;;;;;2199577;26;20021;-71
2024/04/16 01:54:53;;;;;;;13.45;4.40;;;;;;;;;;2199466;26;20136;-72
2024/04/16 01:55:54;;;;;;;;;;;;;;;;;;2200871;26;20126;-72
2024/04/16 01:56:57;;;;;;;10.25;4.95;;;;;;;;;;2199313;26;20000;-71
2024/04/16 01:57:58;;;;;;;9.40;4.55;;;;;;;;;;2200585;26;20004;-72
2024/04/16 01:58:59;;;;;;;;;;;;;;;;;;2200248;26;20009;-72
2024/04/16 02:00:00;;;;;;;11.63;4.85;;;;;;;;;;2200501;26;20008;-72
2024/04/16 02:01:04;;;;;;;15.27;5.53;;;;;;;;;;2198068;26;20012;-71
2024/04/16 02:02:07;;;;;;;10.15;4.63;;;;;;;;;;2200448;26;20548;-72
2024/04/16 02:03:08;;;;;;;13.73;4.95;;;;;;;;;;2198740;26;20008;-73
2024/04/16 02:04:12;;;;;;;7.13;4.18;;;;;;;;;;2199837;26;20862;-71
2024/04/16 02:05:13;;;;;;;10.05;4.43;;;;;;;;;;2199988;26;20016;-72
2024/04/16 02:06:14;;;;;;;9.35;4.65;;;;;;;;;;2198066;26;20075;-71
2024/04/16 02:07:18;;;;;;;11.48;4.70;;;;;;;;;;2196040;26;20441;-72
2024/04/16 02:08:19;;;;;;;12.65;5.13;;;;;;;;;;2199478;26;20016;-72
2024/04/16 02:09:23;;;;;;;;;;;;;;;;;;2200535;26;20009;-72
2024/04/16 02:10:26;;;;;;;8.70;4.53;;;;;;;;;;2195833;26;19926;-72
2024/04/16 02:11:27;;;;;;;8.65;4.55;;;;;;;;;;2202852;26;20083;-72
2024/04/16 02:12:29;;;;;;;12.25;4.68;;;;;;;;;;2198399;26;20009;-72
2024/04/16 02:13:30;;;;;;;10.40;5.10;;;;;;;;;;2199937;26;20453;-72
2024/04/16 02:14:34;;;;;;;10.18;5.40;;;;;;;;;;2199889;26;20008;-72
2024/04/16 02:15:35;;;;;;;10.55;4.95;;;;;;;;;;2197031;26;19997;-72
2024/04/16 02:16:36;;;;;;;9.90;4.90;;;;;;;;;;2198156;26;20054;-72
2024/04/16 02:17:37;;;;;;;10.70;5.38;;;;;;;;;;2200703;26;20002;-73
2024/04/16 02:18:41;;;;;;;9.18;5.40;;;;;;;;;;2198536;26;20017;-71
2024/04/16 02:19:43;;;;;;;11.02;5.60;;;;;;;;;;2201003;26;20460;-72
2024/04/16 02:20:44;;;;;;;11.05;5.57;;;;;;;;;;2198448;26;20697;-72
2024/04/16 02:21:45;;;;;;;13.98;5.78;;;;;;;;;;2200747;26;20005;-72
2024/04/16 02:22:49;;;;;;;11.80;5.07;;;;;;;;;;2199070;26;20032;-72
2024/04/16 02:23:50;;;;;;;11.93;5.20;;;;;;;;;;2202369;26;20001;-73
2024/04/16 02:24:53;;;;;;;;;;;;;;;;;;2201666;26;20005;-72
2024/04/16 02:25:55;;;;;;;18.75;5.05;;;;;;;;;;2197852;26;19926;-72
2024/04/16 02:26:59;;;;;;;11.65;5.20;;;;;;;;;;2199465;26;20102;-72
2024/04/16 02:28:00;;;;;;;12.07;5.03;;;;;;;;;;2199547;26;20493;-71
2024/04/16 02:29:01;;;;;;;12.40;4.93;;;;;;;;;;2199022;26;20422;-72
2024/04/16 02:30:02;;;;;;;12.82;5.10;;;;;;;;;;2202896;26;20342;-71
2024/04/16 02:31:06;;;;;;;16.15;5.65;;;;;;;;;;2198631;26;20488;-72
2024/04/16 02:32:07;;;;;;;9.52;5.00;;;;;;;;;;2197883;26;19997;-72
2024/04/16 02:33:09;;;;;;;;;;;;;;;;;;2201100;26;20012;-72
2024/04/16 02:34:09;;;;;;;;;;;;;;;;;;2201662;26;20748;-72
2024/04/16 02:35:13;;;;;;;14.63;5.18;;;;;;;;;;2198575;26;19962;-74
2024/04/16 02:36:14;;;;;;;12.18;4.85;;;;;;;;;;2199995;26;20087;-72
2024/04/16 02:37:15;;;;;;;;;;;;;;;;;;2199958;26;20009;-72
2024/04/16 02:38:16;;;;;;;9.40;5.25;;;;;;;;;;2204428;26;20235;-72
2024/04/16 02:39:20;;;;;;;9.38;4.88;;;;;;;;;;2197597;26;20569;-72
2024/04/16 02:40:24;;;;;;;11.50;5.32;;;;;;;;;;2200795;26;20787;-72
2024/04/16 02:41:25;;;;;;;13.65;5.80;;;;;;;;;;2200160;26;20010;-71
2024/04/16 02:42:25;;;;;;;;;;;;;;;;;;2199085;26;20025;-72
2024/04/16 02:43:29;;;;;;;9.18;5.60;;;;;;;;;;2201138;26;19961;-72
2024/04/16 02:44:30;;;;;;;8.85;4.93;;;;;;;;;;2198704;26;20009;-72
2024/04/16 02:45:32;;;;;;;11.90;5.18;;;;;;;;;;2198544;26;20032;-73
2024/04/16 02:46:33;;;;;;;12.77;5.22;;;;;;;;;;2200161;26;20017;-71
2024/04/16 02:47:36;;;;;;;11.38;4.60;;;;;;;;;;2199981;26;19997;-71
2024/04/16 02:48:37;;;;;;;11.50;4.72;;;;;;;;;;2201293;26;20041;-72
2024/04/16 02:49:38;;;;;;;;;;;;;;;;;;2186234;26;20016;-72
2024/04/16 02:50:40;;;;;;;13.85;5.43;;;;;;;;;;2188433;26;19934;-71
2024/04/16 02:51:43;;;;;;;10.05;5.00;;;;;;;;;;2201993;26;20037;-73
2024/04/16 02:52:44;;;;;;;13.88;6.10;;;;;;;;;;2200122;26;20009;-72
2024/04/16 02:53:45;;;;;;;;;;;;;;;;;;2202243;26;20423;-72
2024/04/16 02:54:48;;;;;;;11.88;5.45;;;;;;;;;;2202612;26;19933;-72
2024/04/16 02:55:54;;;;;;;12.23;5.28;;;;;;;;;;2197408;26;20524;-71
2024/04/16 02:56:55;;;;;;;11.18;5.47;;;;;;;;;;2202278;26;19998;-72
2024/04/16 02:57:56;;;;;;;;;;;;;;;;;;2199292;26;20005;-72
2024/04/16 02:58:57;;;;;;;14.90;6.00;;;;;;;;;;2199910;26;19926;-71
2024/04/16 03:00:00;;;;;;;;;;;;;;;;;;2198438;26;20025;-72
2024/04/16 03:01:04;;;;;;;9.65;5.28;;;;;;;;;;2200004;26;19933;-72
2024/04/16 03:02:05;;;;;;;12.00;5.63;;;;;;;;;;2180422;26;20824;-72
2024/04/16 03:03:06;;;;;;;14.85;5.30;;;;;;;;;;2193208;26;20028;-72
2024/04/16 03:04:10;;;;;;;17.77;5.45;;;;;;;;;;2177443;26;20047;-72
2024/04/16 03:05:12;;;;;;;13.20;5.57;;;;;;;;;;2183307;26;20017;-71
2024/04/16 03:06:13;;;;;;;12.38;5.65;;;;;;;;;;2182623;26;20005;-71
2024/04/16 03:07:14;;;;;;;14.18;6.20;;;;;;;;;;2179666;26;20009;-71
2024/04/16 03:08:18;;;;;;;9.48;4.88;;;;;;;;;;2182493;26;20009;-71
2024/04/16 03:09:19;;;;;;;11.25;5.10;;;;;;;;;;2187892;26;20013;-72
2024/04/16 03:10:20;;;;;;;;;;;;;;;;;;2171051;26;20476;-72
2024/04/16 03:11:24;;;;;;;8.98;4.72;;;;;;;;;;2182882;26;19934;-72
2024/04/16 03:12:28;;;;;;;12.35;5.65;;;;;;;;;;2177979;26;21562;-72
2024/04/16 03:13:29;;;;;;;9.75;5.40;;;;;;;;;;2180873;26;20473;-71
2024/04/16 03:14:30;;;;;;;12.80;6.25;;;;;;;;;;2170507;26;20005;-72
2024/04/16 03:15:31;;;;;;;;;;;;;;;;;;2183485;26;20874;-73
2024/04/16 03:16:35;;;;;;;10.25;5.05;;;;;;;;;;2191854;26;19938;-72
2024/04/16 03:17:36;;;;;;;13.23;5.60;;;;;;;;;;2195189;26;20024;-78
2024/04/16 03:18:37;;;;;;;14.05;5.90;;;;;;;;;;2183787;26;20008;-74
2024/04/16 03:19:41;;;;;;;;;;;;;;;;;;2176440;26;20005;-73
2024/04/16 03:20:42;;;;;;;13.15;5.05;;;;;;;;;;2188832;26;19941;-73
2024/04/16 03:21:43;;;;;;;11.13;5.03;;;;;;;;;;2181353;26;20577;-73
2024/04/16 03:22:44;;;;;;;;;;;;;;;;;;2186217;26;20127;-74
2024/04/16 03:23:48;;;;;;;10.98;5.25;;;;;;;;;;2181017;26;20627;-72
2024/04/16 03:24:51;;;;;;;10.00;5.78;;;;;;;;;;2184983;26;20019;-71
2024/04/16 03:25:52;;;;;;;13.65;5.30;;;;;;;;;;2182878;26;20428;-72
2024/04/16 03:26:56;;;;;;;11.73;5.75;;;;;;;;;;2191667;26;20022;-72
2024/04/16 03:27:59;;;;;;;15.90;5.63;;;;;;;;;;2187931;26;20491;-71
2024/04/16 03:29:00;;;;;;;14.35;5.10;;;;;;;;;;2192321;26;20764;-71
2024/04/16 03:30:01;;;;;;;11.57;5.50;;;;;;;;;;2189840;26;20020;-72
2024/04/16 03:31:05;;;;;;;;;;;;;;;;;;2197778;26;20001;-71
2024/04/16 03:32:06;;;;;;;12.15;4.82;;;;;;;;;;2188387;26;19934;-71
2024/04/16 03:33:07;;;;;;;11.48;5.75;;;;;;;;;;2180900;26;20005;-72
2024/04/16 03:34:11;;;;;;;12.85;5.60;;;;;;;;;;2186943;26;21250;-72
2024/04/16 03:35:12;;;;;;;15.98;5.90;;;;;;;;;;2171090;26;20573;-73
2024/04/16 03:36:13;;;;;;;15.57;5.65;;;;;;;;;;2180044;26;20493;-71
2024/04/16 03:37:16;;;;;;;;;;;;;;;;;;2186416;26;19998;-71
2024/04/16 03:38:18;;;;;;;9.50;5.00;;;;;;;;;;2189329;27;19927;-72
2024/04/16 03:39:21;;;;;;;10.52;4.80;;;;;;;;;;2185727;26;20525;-72
2024/04/16 03:40:22;;;;;;;12.25;5.47;;;;;;;;;;2183645;26;20026;-72
2024/04/16 03:41:28;;;;;;;;;;;;;;;;;;2186488;26;20160;-71
2024/04/16 03:42:31;;;;;;;10.88;5.45;;;;;;;;;;2182224;26;19934;-71
2024/04/16 03:43:33;;;;;;;13.07;5.60;;;;;;;;;;2184537;26;20002;-72
2024/04/16 03:44:36;;;;;;;11.30;5.30;;;;;;;;;;2188900;27;20029;-72
2024/04/16 03:45:37;;;;;;;12.50;5.30;;;;;;;;;;2187467;27;20017;-72
2024/04/16 03:46:38;;;;;;;;;;;;;;;;;;2187166;26;20024;-72
2024/04/16 03:47:39;;;;;;;8.98;5.20;;;;;;;;;;2181880;26;19932;-72
2024/04/16 03:48:43;;;;;;;10.82;5.63;;;;;;;;;;2173207;26;20024;-72
2024/04/16 03:49:44;;;;;;;10.93;5.63;;;;;;;;;;2184276;26;20474;-72
2024/04/16 03:50:46;;;;;;;12.82;5.43;;;;;;;;;;2186916;26;20137;-72
2024/04/16 03:51:47;;;;;;;10.98;5.22;;;;;;;;;;2187024;27;20018;-71
2024/04/16 03:52:50;;;;;;;11.30;5.22;;;;;;;;;;2188122;26;20008;-71
2024/04/16 03:53:52;;;;;;;13.88;5.25;;;;;;;;;;2186240;26;20654;-72
2024/04/16 03:54:53;;;;;;;10.20;5.82;;;;;;;;;;2184657;26;19997;-72
2024/04/16 03:55:58;;;;;;;18.38;5.65;;;;;;;;;;2184348;26;20899;-72
2024/04/16 03:57:02;;;;;;;11.00;5.28;;;;;;;;;;2187866;27;20010;-72
2024/04/16 03:58:06;;;;;;;14.02;6.05;;;;;;;;;;2185781;26;20006;-72
2024/04/16 03:59:15;;;;;;;11.43;5.05;;;;;;;;;;2187032;26;20011;-72
2024/04/16 04:01:39;;;;;;;11.48;5.13;;;;;;;;;;2185006;26;20025;-72
2024/04/16 04:02:40;;;;;;;16.20;5.47;;;;;;;;;;2187431;26;20388;-72
2024/04/16 04:03:43;;;;;;;;;;;;;;;;;;2189353;26;20790;-72
2024/04/16 04:04:44;;;;;;;14.38;5.93;;;;;;;;;;2186711;26;19926;-72
2024/04/16 04:05:48;;;;;;;10.65;5.28;;;;;;;;;;2175341;26;20025;-73
2024/04/16 04:06:49;;;;;;;14.95;5.65;;;;;;;;;;2174301;26;20018;-72
2024/04/16 04:07:50;;;;;;;12.82;5.35;;;;;;;;;;2186959;26;20405;-72
2024/04/16 04:08:51;;;;;;;10.90;5.55;;;;;;;;;;2200090;26;20530;-72
2024/04/16 04:09:54;;;;;;;;;;;;;;;;;;2201337;26;20006;-72
2024/04/16 04:10:55;;;;;;;11.95;5.75;;;;;;;;;;2199742;26;20882;-72
2024/04/16 04:11:56;;;;;;;;;;;;;;;;;;2199262;26;20010;-72
2024/04/16 04:12:59;;;;;;;13.23;5.40;;;;;;;;;;2201806;26;19933;-73
2024/04/16 04:14:03;;;;;;;11.57;5.00;;;;;;;;;;2188908;26;20002;-72
2024/04/16 04:15:05;;;;;;;12.70;5.60;;;;;;;;;;2185449;26;20359;-72
2024/04/16 04:16:09;;;;;;;14.15;5.20;;;;;;;;;;2184880;26;20004;-73
2024/04/16 04:17:10;;;;;;;13.32;6.10;;;;;;;;;;2186361;27;20001;-72
2024/04/16 04:18:10;;;;;;;;;;;;;;;;;;2188879;26;20009;-72
2024/04/16 04:19:12;;;;;;;13.98;5.18;;;;;;;;;;2187945;26;19970;-72
2024/04/16 04:20:12;;;;;;;;;;;;;;;;;;2184989;26;20012;-72
2024/04/16 04:21:16;;;;;;;12.82;4.85;;;;;;;;;;2185970;27;19927;-72
2024/04/16 04:22:17;;;;;;;12.85;5.30;;;;;;;;;;2183834;26;20560;-72
2024/04/16 04:23:18;;;;;;;;;;;;;;;;;;2187079;27;20010;-72
2024/04/16 04:24:19;;;;;;;11.73;5.00;;;;;;;;;;2186755;26;19938;-72
2024/04/16 04:25:23;;;;;;;13.23;5.40;;;;;;;;;;2182707;26;20012;-73
2024/04/16 04:26:24;;;;;;;12.15;5.22;;;;;;;;;;2185702;26;20036;-71
2024/04/16 04:27:25;;;;;;;;;;;;;;;;;;2185796;27;20028;-72
2024/04/16 04:28:28;;;;;;;16.92;5.93;;;;;;;;;;2182395;26;19934;-71
2024/04/16 04:29:33;;;;;;;11.52;5.40;;;;;;;;;;2185774;26;20454;-71
2024/04/16 04:30:34;;;;;;;14.38;5.53;;;;;;;;;;2182411;27;20016;-71
2024/04/16 04:31:35;;;;;;;;;;;;;;;;;;2183172;26;20510;-74
2024/04/16 04:32:39;;;;;;;15.73;5.35;;;;;;;;;;2185648;26;19934;-71
2024/04/16 04:33:40;;;;;;;13.45;4.95;;;;;;;;;;2187304;26;20001;-71
2024/04/16 04:34:40;;;;;;;;;;;;;;;;;;2193874;26;20005;-71
2024/04/16 04:35:41;;;;;;;13.25;5.45;;;;;;;;;;2200124;26;20048;-71
2024/04/16 04:36:45;;;;;;;16.55;5.70;;;;;;;;;;2197484;26;20020;-73
2024/04/16 04:37:46;;;;;;;8.85;5.05;;;;;;;;;;2204411;26;20015;-72
2024/04/16 04:38:47;;;;;;;;;;;;;;;;;;2202108;26;20080;-72
2024/04/16 04:39:48;;;;;;;12.85;4.85;;;;;;;;;;2202186;26;19925;-72
2024/04/16 04:40:51;;;;;;;;;;;;;;;;;;2200592;26;20017;-71
2024/04/16 04:41:52;;;;;;;11.32;4.80;;;;;;;;;;2199330;26;19937;-71
2024/04/16 04:42:55;;;;;;;;;;;;;;;;;;2199808;26;20448;-71
2024/04/16 04:43:58;;;;;;;9.63;5.00;;;;;;;;;;2199823;26;19926;-72
2024/04/16 04:45:02;;;;;;;9.95;5.28;;;;;;;;;;2202414;26;20738;-72
2024/04/16 04:46:04;;;;;;;10.50;4.93;;;;;;;;;;2199683;26;20426;-73
2024/04/16 04:47:08;;;;;;;11.85;5.28;;;;;;;;;;2199464;26;20369;-72
2024/04/16 04:48:09;;;;;;;16.42;5.30;;;;;;;;;;2200427;26;20001;-72
2024/04/16 04:49:10;;;;;;;;;;;;;;;;;;2201952;26;20010;-72
2024/04/16 04:50:14;;;;;;;11.13;5.60;;;;;;;;;;2203014;26;20398;-71
2024/04/16 04:51:15;;;;;;;12.15;5.25;;;;;;;;;;2200839;26;20020;-71
2024/04/16 04:52:15;;;;;;;;;;;;;;;;;;2202766;26;20009;-72
2024/04/16 04:53:19;;;;;;;11.90;4.75;;;;;;;;;;2200769;26;19967;-71
2024/04/16 04:54:20;;;;;;;15.27;6.05;;;;;;;;;;2196206;26;20017;-72
2024/04/16 04:55:21;;;;;;;;;;;;;;;;;;2200907;26;20009;-71
2024/04/16 04:56:22;;;;;;;12.05;5.38;;;;;;;;;;2199712;26;19991;-71
2024/04/16 04:57:26;;;;;;;13.55;5.63;;;;;;;;;;2199529;26;20078;-72
2024/04/16 04:58:27;;;;;;;18.08;5.72;;;;;;;;;;2197585;26;20020;-72
2024/04/16 04:59:28;;;;;;;12.00;4.88;;;;;;;;;;2196493;26;20009;-72
2024/04/16 05:00:33;;;;;;;10.80;5.05;;;;;;;;;;2201076;26;20020;-71
2024/04/16 05:01:36;;;;;;;9.63;4.95;;;;;;;;;;2190765;26;20009;-72
2024/04/16 05:02:37;;;;;;;15.05;5.30;;;;;;;;;;2185268;26;20002;-72
2024/04/16 05:03:38;;;;;;;;;;;;;;;;;;2188753;26;20022;-72
2024/04/16 05:04:42;;;;;;;9.48;5.10;;;;;;;;;;2183203;26;20017;-72
2024/04/16 05:05:45;;;;;;;14.10;5.45;;;;;;;;;;2186241;27;20436;-72
2024/04/16 05:06:46;;;;;;;18.02;5.60;;;;;;;;;;2185550;27;20010;-74
2024/04/16 05:07:49;;;;;;;;;;;;;;;;;;2186955;26;20364;-72
2024/04/16 05:08:50;;;;;;;13.25;4.95;;;;;;;;;;2187586;26;19927;-72
2024/04/16 05:09:53;;;;;;;;;;;;;;;;;;2187460;26;20012;-73
2024/04/16 05:10:54;;;;;;;12.85;5.88;;;;;;;;;;2184919;26;20764;-72
2024/04/16 05:11:57;;;;;;;;;;;;;;;;;;2185778;26;20006;-72
2024/04/16 05:12:58;;;;;;;11.45;5.68;;;;;;;;;;2183819;26;20689;-72
2024/04/16 05:13:59;;;;;;;10.15;5.65;;;;;;;;;;2200642;26;20838;-73
2024/04/16 05:15:00;;;;;;;;;;;;;;;;;;2200038;26;20009;-72
2024/04/16 05:16:07;;;;;;;15.85;6.78;;;;;;;;;;2200503;26;20408;-72
2024/04/16 05:17:08;;;;;;;12.70;6.30;;;;;;;;;;2201241;26;20001;-71
2024/04/16 05:18:09;;;;;;;;;;;;;;;;;;2198840;26;20032;-72
2024/04/16 05:19:13;;;;;;;13.50;6.20;;;;;;;;;;2200783;26;19999;-72
2024/04/16 05:20:14;;;;;;;12.77;6.45;;;;;;;;;;2200721;26;20040;-72
2024/04/16 05:21:15;;;;;;;14.90;6.45;;;;;;;;;;2198963;26;20040;-72
2024/04/16 05:22:16;;;;;;;13.38;6.47;;;;;;;;;;2199044;26;20009;-72
2024/04/16 05:23:20;;;;;;;;;;;;;;;;;;2201353;26;20010;-72
2024/04/16 05:24:21;;;;;;;12.32;6.43;;;;;;;;;;2198070;26;20009;-72
2024/04/16 05:25:21;;;;;;;;;;;;;;;;;;2200189;26;20006;-72
2024/04/16 05:26:22;;;;;;;15.57;7.43;;;;;;;;;;2199295;26;20331;-72
2024/04/16 05:27:26;;;;;;;17.27;6.35;;;;;;;;;;2195802;26;20227;-72
2024/04/16 05:28:27;;;;;;;16.48;7.10;;;;;;;;;;2198459;26;20012;-72
2024/04/16 05:29:28;;;;;;;;;;;;;;;;;;2199839;26;20360;-72
2024/04/16 05:30:29;;;;;;;13.70;6.32;;;;;;;;;;2200907;26;19926;-72
2024/04/16 05:31:35;;;;;;;15.32;6.40;;;;;;;;;;2196723;26;20210;-72
2024/04/16 05:32:37;;;;;;;13.25;6.30;;;;;;;;;;2198203;26;20001;-72
2024/04/16 05:33:38;;;;;;;10.68;6.25;;;;;;;;;;2200440;26;20459;-73
2024/04/16 05:34:42;;;;;;;;;;;;;;;;;;2201730;26;20005;-72
2024/04/16 05:35:43;;;;;;;15.10;6.95;;;;;;;;;;2201343;26;20279;-72
2024/04/16 05:36:44;;;;;;;17.15;7.10;;;;;;;;;;2200092;26;20036;-72
2024/04/16 05:37:44;;;;;;;;;;;;;;;;;;2200782;26;20562;-72
2024/04/16 05:38:48;;;;;;;15.70;6.50;;;;;;;;;;2199555;26;20013;-72
2024/04/16 05:39:49;;;;;;;14.13;6.30;;;;;;;;;;2200063;26;20005;-72
2024/04/16 05:40:50;;;;;;;;;;;;;;;;;;2200837;26;20008;-72
2024/04/16 05:41:51;;;;;;;14.38;6.10;;;;;;;;;;2201671;26;19973;-72
2024/04/16 05:42:54;;;;;;;;;;;;;;;;;;2202150;26;20001;-72
2024/04/16 05:43:55;;;;;;;12.52;5.93;;;;;;;;;;2186159;26;20366;-72
2024/04/16 05:44:56;;;;;;;;;;;;;;;;;;2185968;26;20002;-72
2024/04/16 05:45:57;;;;;;;9.52;5.90;;;;;;;;;;2182184;27;19927;-72
2024/04/16 05:47:04;;;;;;;11.57;5.78;;;;;;;;;;2184382;26;20449;-72
2024/04/16 05:48:05;;;;;;;11.13;5.50;;;;;;;;;;2183573;26;20002;-72
2024/04/16 05:49:07;;;;;;;14.68;6.22;;;;;;;;;;2184252;26;20014;-72
2024/04/16 05:50:07;;;;;;;;;;;;;;;;;;2186313;26;20025;-72
2024/04/16 05:51:11;;;;;;;14.00;6.32;;;;;;;;;;2184407;26;20056;-72
2024/04/16 05:52:12;;;;;;;11.20;5.53;;;;;;;;;;2183445;26;19998;-72
2024/04/16 05:53:13;;;;;;;;;;;;;;;;;;2188231;26;20010;-72
2024/04/16 05:54:14;;;;;;;12.82;5.90;;;;;;;;;;2184215;26;20022;-72
2024/04/16 05:55:18;;;;;;;10.23;5.65;;;;;;;;;;2183565;26;20001;-74
2024/04/16 05:56:19;;;;;;;13.20;6.00;;;;;;;;;;2182898;27;20006;-72
2024/04/16 05:57:19;;;;;;;;;;;;;;;;;;2185311;26;20010;-72
2024/04/16 05:58:24;;;;;;;12.80;5.93;;;;;;;;;;2182835;26;19934;-72
2024/04/16 05:59:25;;;;;;;13.82;6.05;;;;;;;;;;2182379;27;20494;-74
2024/04/16 06:00:26;;;;;;;;;;;;;;;;;;2185319;27;20019;-72
2024/04/16 06:01:27;;;;;;;14.48;6.18;;;;;;;;;;2181946;26;20608;-72
2024/04/16 06:02:33;;;;;;;14.60;6.35;;;;;;;;;;2186899;26;20088;-72
2024/04/16 06:03:34;;;;;;;12.35;6.20;;;;;;;;;;2183939;26;20457;-74
2024/04/16 06:04:35;;;;;;;;;;;;;;;;;;2194490;26;20362;-72
2024/04/16 06:05:36;;;;;;;10.57;5.88;;;;;;;;;;2200592;26;19998;-72
2024/04/16 06:06:39;;;;;;;13.35;5.43;;;;;;;;;;2197804;26;20020;-72
2024/04/16 06:07:41;;;;;;;12.13;6.43;;;;;;;;;;2198614;26;20472;-72
2024/04/16 06:08:42;;;;;;;13.65;6.07;;;;;;;;;;2199183;26;20336;-72
2024/04/16 06:09:43;;;;;;;16.08;6.47;;;;;;;;;;2197879;26;20053;-73
2024/04/16 06:10:47;;;;;;;;;;;;;;;;;;2202293;26;20024;-73
2024/04/16 06:11:48;;;;;;;15.77;6.32;;;;;;;;;;2196474;26;19927;-73
2024/04/16 06:12:48;;;;;;;;;;;;;;;;;;2197781;26;20001;-73
2024/04/16 06:13:50;;;;;;;16.65;6.28;;;;;;;;;;2196962;26;20007;-73
2024/04/16 06:14:53;;;;;;;17.30;6.80;;;;;;;;;;2198754;26;20021;-71
2024/04/16 06:15:54;;;;;;;17.75;7.03;;;;;;;;;;2199100;26;20012;-72
2024/04/16 06:16:56;;;;;;;12.55;6.60;;;;;;;;;;2201036;26;20013;-74
2024/04/16 06:18:04;;;;;;;17.35;6.78;;;;;;;;;;2199952;26;20602;-73
2024/04/16 06:19:05;;;;;;;13.32;6.53;;;;;;;;;;2198714;26;20475;-74